Buoy 46563

sailwx.info

Track history (hours):
 
Tides and Currents Weather Stations Pressure Air Temp Water Temp Dewpoint Dewpoint Depression Visibility Wind Speed Wind Dir Waves Ship Positions

Drifting buoy 46563

Last reported at 2015-Aug-03 22:00 UTC. Time now 2015-Aug-04 03:22 UTC.
Position N 21°04' W 139°36'.

Water temperature 25.6 ° C

Date/timePositionNaut miles runAvg speedWind from/ knotsBaromVisibWave heightAir tempDewpointWater temp
2015-Aug-03 22:00N 21°04' W 139°36'0 0.0 25.6
2015-Aug-03 20:00N 21°04' W 139°36'0 0.1 25.6
2015-Aug-03 18:00N 21°04' W 139°35'2 1.6 25.5
2015-Aug-03 17:00N 21°04' W 139°34'0 0.0 25.6
2015-Aug-03 16:00N 21°04' W 139°34'0 0.1 25.5
2015-Aug-03 15:00N 21°04' W 139°34'0 0.5 25.6
2015-Aug-03 14:00N 21°04' W 139°33'1 0.6 25.6
2015-Aug-03 13:00N 21°04' W 139°32'0 0.0 25.6
2015-Aug-03 12:00N 21°04' W 139°32'3 0.4 25.6
2015-Aug-03 06:00N 21°03' W 139°30'1 0.8 25.6
2015-Aug-03 05:00N 21°03' W 139°29'0 0.1 25.6
2015-Aug-03 03:00N 21°03' W 139°29'0 0.4 25.6
2015-Aug-03 02:00N 21°03' W 139°28'1 1.0 25.7
2015-Aug-03 01:00N 21°02' W 139°28'0 0.0 25.6
2015-Aug-03 00:00N 21°02' W 139°28'1 0.6 25.7
2015-Aug-02 22:00N 21°03' W 139°26'1 0.6 25.7
2015-Aug-02 20:00N 21°01' W 139°26'2 0.5 25.6
2015-Aug-02 16:00N 21°00' W 139°24'0 0.2 25.6
2015-Aug-02 15:00N 21°00' W 139°24'0 0.0 25.6
2015-Aug-02 14:00N 21°00' W 139°24'2 0.6 25.6
2015-Aug-02 11:00N 21°00' W 139°22'2 1.9 25.6
2015-Aug-02 10:00N 20°60' W 139°20'0 0.0 25.6
2015-Aug-02 08:00N 20°60' W 139°20'0 0.0 25.6
2015-Aug-02 07:00N 20°60' W 139°20'1 1.4 25.6
2015-Aug-02 06:00N 20°59' W 139°19'0 0.2 25.6
2015-Aug-02 03:00N 20°59' W 139°19'1 0.6 25.6
2015-Aug-02 02:00N 20°59' W 139°18'0 0.1 25.7
2015-Aug-02 01:00N 20°59' W 139°18'2 0.4 25.7
2015-Aug-01 19:00N 20°58' W 139°16'2 0.5 25.5
2015-Aug-01 15:00N 20°56' W 139°15'0 0.0 25.4
2015-Aug-01 14:00N 20°56' W 139°15'4 0.5 25.5
2015-Aug-01 05:00N 20°54' W 139°11'3 0.4 25.5
2015-Jul-31 22:00N 20°53' W 139°08'2 0.4 25.5
2015-Jul-31 18:00N 20°52' W 139°06'1 1.0 25.4
2015-Jul-31 17:00N 20°52' W 139°05'0 0.1 25.4
2015-Jul-31 16:00N 20°52' W 139°05'1 0.6 25.4
2015-Jul-31 14:00N 20°52' W 139°07'8 0.7 25.5
2015-Jul-31 03:00N 20°45' W 139°02'0 0.0 25.7
2015-Jul-30 23:00N 20°45' W 139°02'5 0.6 25.7
2015-Jul-30 15:00N 20°44' W 138°57'1 0.4 25.7
2015-Jul-30 11:00N 20°44' W 138°55'4 0.6 25.7
2015-Jul-30 05:00N 20°41' W 138°52'8 0.7 25.8
2015-Jul-29 17:00N 20°38' W 138°44'3 0.6 25.6
2015-Jul-29 12:00N 20°38' W 138°41'0 0.0 25.6
2015-Jul-29 11:00N 20°38' W 138°41'2 0.4 25.6
2015-Jul-29 06:00N 20°39' W 138°39'0 0.1 25.5
2015-Jul-29 03:00N 20°39' W 138°39'4 0.3 25.6
2015-Jul-28 15:00N 20°37' W 138°36'2 0.5 25.2
2015-Jul-28 11:00N 20°36' W 138°34'5 0.6 25.2
2015-Jul-28 03:00N 20°39' W 138°30'1 0.8 25.4
2015-Jul-28 02:00N 20°40' W 138°30'11 0.7 25.4
2015-Jul-27 10:00N 20°47' W 138°21'3 0.6 25.3
2015-Jul-27 05:00N 20°47' W 138°18'4 1.4
2015-Jul-27 02:00N 20°48' W 138°13'2 0.5 25.4
2015-Jul-26 23:00N 20°48' W 138°12'0 0.0 25.3
2015-Jul-26 22:00N 20°48' W 138°12'3 2.8
2015-Jul-26 21:00N 20°49' W 138°09'2 0.4 25.2
2015-Jul-26 17:00N 20°50' W 138°09'2 1.0 25.0
2015-Jul-26 15:00N 20°50' W 138°07'1 0.5 25.0
2015-Jul-26 13:00N 20°51' W 138°06'0 0.2 25.0
2015-Jul-26 11:00N 20°51' W 138°06'1 0.2 25.1
2015-Jul-26 07:00N 20°51' W 138°05'0 0.3 25.1
2015-Jul-26 06:00N 20°51' W 138°05'0 0.0 25.2
2015-Jul-26 05:00N 20°51' W 138°05'1 0.6 25.2
2015-Jul-26 04:00N 20°51' W 138°04'1 0.8 25.3
2015-Jul-26 03:00N 20°50' W 138°04'1 1.1 25.3
2015-Jul-26 02:00N 20°49' W 138°03'0 0.0 25.4
2015-Jul-26 01:00N 20°49' W 138°03'1 0.9 25.4
2015-Jul-26 00:00N 20°49' W 138°02'2 1.8 25.4
2015-Jul-25 23:00N 20°48' W 138°00'0 0.0 25.4
2015-Jul-25 22:00N 20°48' W 138°00'2 1.2 25.3
2015-Jul-25 20:00N 20°48' W 137°58'3 0.5 25.2
2015-Jul-25 14:00N 20°48' W 137°54'1 1.3 25.2
2015-Jul-25 13:00N 20°49' W 137°53'2 0.4 25.2
2015-Jul-25 07:00N 20°50' W 137°51'0 0.3 25.3
2015-Jul-25 06:00N 20°50' W 137°50'1 0.5 25.3
2015-Jul-25 04:00N 20°49' W 137°49'0 0.4 25.4
2015-Jul-25 03:00N 20°50' W 137°50'   25.4
Track history (hours):
 
Tides and Currents Weather Stations Pressure Air Temp Water Temp Dewpoint Dewpoint Depression Visibility Wind Speed Wind Dir Waves Ship Positions

Drifting buoy 46563

Last reported at 2015-Aug-03 22:00 UTC. Time now 2015-Aug-04 03:22 UTC.
Position N 21°04' W 139°36'.

Water temperature 25.6 ° C

Date/timePositionNaut miles runAvg speedWind from/ knotsBaromVisibWave heightAir tempDewpointWater temp
2015-Aug-03 22:00N 21°04' W 139°36'0 0.0 25.6
2015-Aug-03 20:00N 21°04' W 139°36'0 0.1 25.6
2015-Aug-03 18:00N 21°04' W 139°35'2 1.6 25.5
2015-Aug-03 17:00N 21°04' W 139°34'0 0.0 25.6
2015-Aug-03 16:00N 21°04' W 139°34'0 0.1 25.5
2015-Aug-03 15:00N 21°04' W 139°34'0 0.5 25.6
2015-Aug-03 14:00N 21°04' W 139°33'1 0.6 25.6
2015-Aug-03 13:00N 21°04' W 139°32'0 0.0 25.6
2015-Aug-03 12:00N 21°04' W 139°32'3 0.4 25.6
2015-Aug-03 06:00N 21°03' W 139°30'1 0.8 25.6
2015-Aug-03 05:00N 21°03' W 139°29'0 0.1 25.6
2015-Aug-03 03:00N 21°03' W 139°29'0 0.4 25.6
2015-Aug-03 02:00N 21°03' W 139°28'1 1.0 25.7
2015-Aug-03 01:00N 21°02' W 139°28'0 0.0 25.6
2015-Aug-03 00:00N 21°02' W 139°28'1 0.6 25.7
2015-Aug-02 22:00N 21°03' W 139°26'1 0.6 25.7
2015-Aug-02 20:00N 21°01' W 139°26'2 0.5 25.6
2015-Aug-02 16:00N 21°00' W 139°24'0 0.2 25.6
2015-Aug-02 15:00N 21°00' W 139°24'0 0.0 25.6
2015-Aug-02 14:00N 21°00' W 139°24'2 0.6 25.6
2015-Aug-02 11:00N 21°00' W 139°22'2 1.9 25.6
2015-Aug-02 10:00N 20°60' W 139°20'0 0.0 25.6
2015-Aug-02 08:00N 20°60' W 139°20'0 0.0 25.6
2015-Aug-02 07:00N 20°60' W 139°20'1 1.4 25.6
2015-Aug-02 06:00N 20°59' W 139°19'0 0.2 25.6
2015-Aug-02 03:00N 20°59' W 139°19'1 0.6 25.6
2015-Aug-02 02:00N 20°59' W 139°18'0 0.1 25.7
2015-Aug-02 01:00N 20°59' W 139°18'2 0.4 25.7
2015-Aug-01 19:00N 20°58' W 139°16'2 0.5 25.5
2015-Aug-01 15:00N 20°56' W 139°15'0 0.0 25.4
2015-Aug-01 14:00N 20°56' W 139°15'4 0.5 25.5
2015-Aug-01 05:00N 20°54' W 139°11'3 0.4 25.5
2015-Jul-31 22:00N 20°53' W 139°08'2 0.4 25.5
2015-Jul-31 18:00N 20°52' W 139°06'1 1.0 25.4
2015-Jul-31 17:00N 20°52' W 139°05'0 0.1 25.4
2015-Jul-31 16:00N 20°52' W 139°05'1 0.6 25.4
2015-Jul-31 14:00N 20°52' W 139°07'8 0.7 25.5
2015-Jul-31 03:00N 20°45' W 139°02'0 0.0 25.7
2015-Jul-30 23:00N 20°45' W 139°02'5 0.6 25.7
2015-Jul-30 15:00N 20°44' W 138°57'1 0.4 25.7
2015-Jul-30 11:00N 20°44' W 138°55'4 0.6 25.7
2015-Jul-30 05:00N 20°41' W 138°52'8 0.7 25.8
2015-Jul-29 17:00N 20°38' W 138°44'3 0.6 25.6
2015-Jul-29 12:00N 20°38' W 138°41'0 0.0 25.6
2015-Jul-29 11:00N 20°38' W 138°41'2 0.4 25.6
2015-Jul-29 06:00N 20°39' W 138°39'0 0.1 25.5
2015-Jul-29 03:00N 20°39' W 138°39'4 0.3 25.6
2015-Jul-28 15:00N 20°37' W 138°36'2 0.5 25.2
2015-Jul-28 11:00N 20°36' W 138°34'5 0.6 25.2
2015-Jul-28 03:00N 20°39' W 138°30'1 0.8 25.4
2015-Jul-28 02:00N 20°40' W 138°30'11 0.7 25.4
2015-Jul-27 10:00N 20°47' W 138°21'3 0.6 25.3
2015-Jul-27 05:00N 20°47' W 138°18'4 1.4
2015-Jul-27 02:00N 20°48' W 138°13'2 0.5 25.4
2015-Jul-26 23:00N 20°48' W 138°12'0 0.0 25.3
2015-Jul-26 22:00N 20°48' W 138°12'3 2.8
2015-Jul-26 21:00N 20°49' W 138°09'2 0.4 25.2
2015-Jul-26 17:00N 20°50' W 138°09'2 1.0 25.0
2015-Jul-26 15:00N 20°50' W 138°07'1 0.5 25.0
2015-Jul-26 13:00N 20°51' W 138°06'0 0.2 25.0
2015-Jul-26 11:00N 20°51' W 138°06'1 0.2 25.1
2015-Jul-26 07:00N 20°51' W 138°05'0 0.3 25.1
2015-Jul-26 06:00N 20°51' W 138°05'0 0.0 25.2
2015-Jul-26 05:00N 20°51' W 138°05'1 0.6 25.2
2015-Jul-26 04:00N 20°51' W 138°04'1 0.8 25.3
2015-Jul-26 03:00N 20°50' W 138°04'1 1.1 25.3
2015-Jul-26 02:00N 20°49' W 138°03'0 0.0 25.4
2015-Jul-26 01:00N 20°49' W 138°03'1 0.9 25.4
2015-Jul-26 00:00N 20°49' W 138°02'2 1.8 25.4
2015-Jul-25 23:00N 20°48' W 138°00'0 0.0 25.4
2015-Jul-25 22:00N 20°48' W 138°00'2 1.2 25.3
2015-Jul-25 20:00N 20°48' W 137°58'3 0.5 25.2
2015-Jul-25 14:00N 20°48' W 137°54'1 1.3 25.2
2015-Jul-25 13:00N 20°49' W 137°53'2 0.4 25.2
2015-Jul-25 07:00N 20°50' W 137°51'0 0.3 25.3
2015-Jul-25 06:00N 20°50' W 137°50'1 0.5 25.3
2015-Jul-25 04:00N 20°49' W 137°49'0 0.4 25.4
2015-Jul-25 03:00N 20°50' W 137°50'   25.4

Dump ship's entire track history